KSPB

Scappoose Industrial Airpark

Scappoose, Oregon, USA
METAR KSPB 231053Z AUTO 17003KT 10SM BKN110 05/04 A3019 RMK AO2 SLP224 T00500044
Observed Flight Rules
Jan-23 @ 10:53 UTC (an hour ago) Visual Flight Rules
Wind Visibility Clouds
170° at 3 knots 10 miles
  • Broken at 11,000' AGL
Temperatures Readings
Current 5°C / 41°F
Dewpoint 4°C / 39°F
Humidity 93%
Altimeter 30.19" Hg
Pressure 1022.4 hPa
Elevation 14
METAR KSPB 231053Z AUTO 17003KT 10SM BKN110 05/04 A3019 RMK AO2 SLP224 T00500044
Observed Flight Rules
Jan-23 @ 10:53 UTC
(an hour ago)
VFR
Wind Visibility
170° at 3 knots 10 miles
Clouds
  • Broken at 11,000' AGL
Temperature Dewpoint
5°C / 41°F 4°C / 39°F
Humidity Altimeter Pressure
93% 30.19" Hg 1022.4 hPa